KIPT/IPT METAR and TAF weather

Enter ICAO airport designator
Station Type Date Time Source
KIPT METAR 2020/04/10 17:54 UTC NOAA

KIPT 101754Z 28020G35KT 10SM BKN050 OVC060 07/M06 A2956 RMK AO2 PK WND 26038/1736 SLP012 T00671056 10067 20028 53020


Station Type Date Time Source
KIPT Decoded METAR 2020/04/10 17:54 UTC NOAA

WILLIAMSPORT-LYCOMING COUNTY, PA, United States (KIPT) 41-15N 076-55W 164M
Apr 10, 2020 - 01:54 PM EDT / 2020.04.10 1754 UTC
Wind: from the W (280 degrees) at 23 MPH (20 KT) gusting to 40 MPH (35 KT):0
Visibility: 10 mile(s):0
Sky conditions: overcast
Temperature: 44.1 F (6.7 C)
Dew Point: 21.9 F (-5.6 C)
Relative Humidity: 41%
Pressure (altimeter): 29.56 in. Hg (1001 hPa)
Pressure tendency: 0.06 inches (2.0 hPa) higher than three hours ago
ob: KIPT 101754Z 28020G35KT 10SM BKN050 OVC060 07/M06 A2956 RMK AO2 PK WND 26038/1736 SLP012 T00671056 10067 20028 53020
cycle: 18

Station Type Date Time Source
KIPT TAF 2020/04/10 18:40 UTC NOAA

TAF KIPT 101738Z 1018/1118 29025G35KT P6SM BKN045
FM102000 29020G30KT P6SM BKN040
FM110000 30015G25KT P6SM SCT050
FM110400 29010KT P6SM SCT050
FM111400 28014G20KT P6SM SCT100

Example: see airport list